sensor_id;sensor_type;location;lat;lon;timestamp;P1;durP1;ratioP1;P2;durP2;ratioP2
27580;SDS011;63557;52.302;7.964;2023-11-21T00:02:05;142.32;;;38.67;;
27580;SDS011;63557;52.302;7.964;2023-11-21T00:07:05;154.63;;;41.60;;
27580;SDS011;63557;52.302;7.964;2023-11-21T00:12:06;185.68;;;44.33;;
27580;SDS011;63557;52.302;7.964;2023-11-21T00:17:10;176.10;;;45.90;;
27580;SDS011;63557;52.302;7.964;2023-11-21T00:22:10;228.30;;;46.07;;
27580;SDS011;63557;52.302;7.964;2023-11-21T00:27:10;187.17;;;44.90;;
27580;SDS011;63557;52.302;7.964;2023-11-21T00:32:11;208.87;;;46.93;;
27580;SDS011;63557;52.302;7.964;2023-11-21T00:37:11;174.48;;;43.08;;
27580;SDS011;63557;52.302;7.964;2023-11-21T00:42:12;221.50;;;46.50;;
27580;SDS011;63557;52.302;7.964;2023-11-21T00:47:12;256.88;;;49.20;;
27580;SDS011;63557;52.302;7.964;2023-11-21T00:52:14;266.30;;;48.15;;
27580;SDS011;63557;52.302;7.964;2023-11-21T00:57:14;252.27;;;46.77;;
27580;SDS011;63557;52.302;7.964;2023-11-21T01:02:15;265.45;;;47.58;;
27580;SDS011;63557;52.302;7.964;2023-11-21T01:07:15;239.52;;;44.88;;
27580;SDS011;63557;52.302;7.964;2023-11-21T01:12:15;253.77;;;46.30;;
27580;SDS011;63557;52.302;7.964;2023-11-21T01:17:17;235.60;;;43.92;;
27580;SDS011;63557;52.302;7.964;2023-11-21T01:22:18;298.52;;;47.17;;
27580;SDS011;63557;52.302;7.964;2023-11-21T01:27:22;220.63;;;44.65;;
27580;SDS011;63557;52.302;7.964;2023-11-21T01:32:22;212.03;;;42.47;;
27580;SDS011;63557;52.302;7.964;2023-11-21T01:37:23;329.30;;;49.97;;
27580;SDS011;63557;52.302;7.964;2023-11-21T01:42:24;270.90;;;46.03;;
27580;SDS011;63557;52.302;7.964;2023-11-21T01:47:24;255.77;;;42.87;;
27580;SDS011;63557;52.302;7.964;2023-11-21T01:52:25;240.23;;;43.35;;
27580;SDS011;63557;52.302;7.964;2023-11-21T01:57:28;258.52;;;48.22;;
27580;SDS011;63557;52.302;7.964;2023-11-21T02:02:29;241.43;;;44.80;;
27580;SDS011;63557;52.302;7.964;2023-11-21T02:07:30;183.67;;;41.47;;
27580;SDS011;63557;52.302;7.964;2023-11-21T02:12:32;208.82;;;43.33;;
27580;SDS011;63557;52.302;7.964;2023-11-21T02:17:32;176.53;;;40.57;;
27580;SDS011;63557;52.302;7.964;2023-11-21T02:22:33;158.07;;;39.43;;
27580;SDS011;63557;52.302;7.964;2023-11-21T02:27:37;186.45;;;42.45;;
27580;SDS011;63557;52.302;7.964;2023-11-21T02:32:37;193.32;;;40.45;;
27580;SDS011;63557;52.302;7.964;2023-11-21T02:37:40;168.32;;;43.58;;
27580;SDS011;63557;52.302;7.964;2023-11-21T02:42:41;161.30;;;40.15;;
27580;SDS011;63557;52.302;7.964;2023-11-21T02:47:41;178.10;;;41.22;;
27580;SDS011;63557;52.302;7.964;2023-11-21T02:52:42;165.65;;;40.40;;
27580;SDS011;63557;52.302;7.964;2023-11-21T02:57:42;171.53;;;42.00;;
27580;SDS011;63557;52.302;7.964;2023-11-21T03:02:43;171.88;;;42.75;;
27580;SDS011;63557;52.302;7.964;2023-11-21T03:07:44;162.95;;;42.10;;
27580;SDS011;63557;52.302;7.964;2023-11-21T03:12:44;166.47;;;41.80;;
27580;SDS011;63557;52.302;7.964;2023-11-21T03:17:45;160.82;;;42.35;;
27580;SDS011;63557;52.302;7.964;2023-11-21T03:22:45;166.63;;;39.15;;
27580;SDS011;63557;52.302;7.964;2023-11-21T03:27:45;155.53;;;40.70;;
27580;SDS011;63557;52.302;7.964;2023-11-21T03:32:46;165.15;;;39.35;;
27580;SDS011;63557;52.302;7.964;2023-11-21T03:37:46;155.70;;;39.17;;
27580;SDS011;63557;52.302;7.964;2023-11-21T03:42:47;148.35;;;39.22;;
27580;SDS011;63557;52.302;7.964;2023-11-21T03:47:47;150.20;;;39.80;;
27580;SDS011;63557;52.302;7.964;2023-11-21T03:52:47;150.47;;;38.30;;
27580;SDS011;63557;52.302;7.964;2023-11-21T03:57:48;149.10;;;38.77;;
27580;SDS011;63557;52.302;7.964;2023-11-21T04:02:48;138.87;;;36.53;;
27580;SDS011;63557;52.302;7.964;2023-11-21T04:07:49;157.85;;;39.38;;
27580;SDS011;63557;52.302;7.964;2023-11-21T04:12:50;164.82;;;41.60;;
27580;SDS011;63557;52.302;7.964;2023-11-21T04:17:50;173.73;;;40.63;;
27580;SDS011;63557;52.302;7.964;2023-11-21T04:22:50;184.00;;;41.80;;
27580;SDS011;63557;52.302;7.964;2023-11-21T04:27:51;174.47;;;42.63;;
27580;SDS011;63557;52.302;7.964;2023-11-21T04:32:51;174.40;;;41.30;;
27580;SDS011;63557;52.302;7.964;2023-11-21T04:37:52;168.77;;;39.25;;
27580;SDS011;63557;52.302;7.964;2023-11-21T04:42:52;163.40;;;40.97;;
27580;SDS011;63557;52.302;7.964;2023-11-21T04:47:52;152.70;;;39.13;;
27580;SDS011;63557;52.302;7.964;2023-11-21T04:52:53;171.63;;;41.00;;
27580;SDS011;63557;52.302;7.964;2023-11-21T04:57:54;165.00;;;40.72;;
27580;SDS011;63557;52.302;7.964;2023-11-21T05:02:54;136.27;;;39.55;;
27580;SDS011;63557;52.302;7.964;2023-11-21T05:07:54;132.50;;;37.53;;
27580;SDS011;63557;52.302;7.964;2023-11-21T05:12:55;134.98;;;38.63;;
27580;SDS011;63557;52.302;7.964;2023-11-21T05:17:55;136.27;;;38.33;;
27580;SDS011;63557;52.302;7.964;2023-11-21T05:23:00;127.53;;;38.05;;
27580;SDS011;63557;52.302;7.964;2023-11-21T05:28:00;143.03;;;37.17;;
27580;SDS011;63557;52.302;7.964;2023-11-21T05:33:02;155.63;;;41.13;;
27580;SDS011;63557;52.302;7.964;2023-11-21T05:38:02;130.83;;;37.07;;
27580;SDS011;63557;52.302;7.964;2023-11-21T05:43:02;184.13;;;40.77;;
27580;SDS011;63557;52.302;7.964;2023-11-21T05:48:03;131.67;;;37.10;;
27580;SDS011;63557;52.302;7.964;2023-11-21T05:53:03;131.15;;;38.22;;
27580;SDS011;63557;52.302;7.964;2023-11-21T05:58:04;166.90;;;42.13;;
27580;SDS011;63557;52.302;7.964;2023-11-21T06:03:04;132.68;;;39.95;;
27580;SDS011;63557;52.302;7.964;2023-11-21T06:08:06;130.82;;;38.58;;
27580;SDS011;63557;52.302;7.964;2023-11-21T06:13:07;127.05;;;35.85;;
27580;SDS011;63557;52.302;7.964;2023-11-21T06:18:08;155.30;;;41.00;;
27580;SDS011;63557;52.302;7.964;2023-11-21T06:23:10;140.57;;;40.40;;
27580;SDS011;63557;52.302;7.964;2023-11-21T06:28:11;141.07;;;35.90;;
27580;SDS011;63557;52.302;7.964;2023-11-21T06:33:11;134.57;;;37.17;;
27580;SDS011;63557;52.302;7.964;2023-11-21T06:38:11;122.80;;;36.53;;
27580;SDS011;63557;52.302;7.964;2023-11-21T06:43:12;106.95;;;33.00;;
27580;SDS011;63557;52.302;7.964;2023-11-21T06:48:14;93.70;;;30.35;;
27580;SDS011;63557;52.302;7.964;2023-11-21T06:53:15;97.40;;;28.42;;
27580;SDS011;63557;52.302;7.964;2023-11-21T06:58:15;80.97;;;26.83;;
27580;SDS011;63557;52.302;7.964;2023-11-21T07:03:15;69.00;;;23.15;;
27580;SDS011;63557;52.302;7.964;2023-11-21T07:08:16;69.77;;;23.27;;
27580;SDS011;63557;52.302;7.964;2023-11-21T07:13:16;60.70;;;21.07;;
27580;SDS011;63557;52.302;7.964;2023-11-21T07:18:16;49.70;;;20.00;;
27580;SDS011;63557;52.302;7.964;2023-11-21T07:23:17;41.00;;;18.38;;
27580;SDS011;63557;52.302;7.964;2023-11-21T07:28:18;44.10;;;18.40;;
27580;SDS011;63557;52.302;7.964;2023-11-21T07:33:18;41.17;;;18.20;;
27580;SDS011;63557;52.302;7.964;2023-11-21T07:38:18;53.97;;;18.67;;
27580;SDS011;63557;52.302;7.964;2023-11-21T07:43:19;44.33;;;18.10;;
27580;SDS011;63557;52.302;7.964;2023-11-21T07:48:19;44.03;;;18.45;;
27580;SDS011;63557;52.302;7.964;2023-11-21T07:53:20;52.37;;;19.43;;
27580;SDS011;63557;52.302;7.964;2023-11-21T07:58:20;54.67;;;19.53;;
27580;SDS011;63557;52.302;7.964;2023-11-21T08:03:21;53.75;;;19.42;;
27580;SDS011;63557;52.302;7.964;2023-11-21T08:08:21;53.65;;;20.13;;
27580;SDS011;63557;52.302;7.964;2023-11-21T08:13:25;53.53;;;18.53;;
27580;SDS011;63557;52.302;7.964;2023-11-21T08:18:26;53.67;;;18.73;;
27580;SDS011;63557;52.302;7.964;2023-11-21T08:23:26;50.17;;;19.30;;
27580;SDS011;63557;52.302;7.964;2023-11-21T08:28:26;42.70;;;17.97;;
27580;SDS011;63557;52.302;7.964;2023-11-21T08:33:27;62.00;;;21.47;;
27580;SDS011;63557;52.302;7.964;2023-11-21T08:38:27;63.05;;;20.38;;
27580;SDS011;63557;52.302;7.964;2023-11-21T08:43:29;59.50;;;20.75;;
27580;SDS011;63557;52.302;7.964;2023-11-21T08:48:29;68.10;;;21.13;;
27580;SDS011;63557;52.302;7.964;2023-11-21T08:53:30;83.85;;;24.77;;
27580;SDS011;63557;52.302;7.964;2023-11-21T08:58:31;83.32;;;24.23;;
27580;SDS011;63557;52.302;7.964;2023-11-21T09:03:32;91.53;;;25.05;;
27580;SDS011;63557;52.302;7.964;2023-11-21T09:08:34;73.40;;;24.27;;
27580;SDS011;63557;52.302;7.964;2023-11-21T09:13:34;120.57;;;28.73;;
27580;SDS011;63557;52.302;7.964;2023-11-21T09:18:34;78.90;;;26.87;;
27580;SDS011;63557;52.302;7.964;2023-11-21T09:23:35;110.23;;;28.77;;
27580;SDS011;63557;52.302;7.964;2023-11-21T09:28:35;75.43;;;24.95;;
27580;SDS011;63557;52.302;7.964;2023-11-21T09:33:38;42.60;;;18.05;;
27580;SDS011;63557;52.302;7.964;2023-11-21T09:38:38;36.97;;;17.03;;
27580;SDS011;63557;52.302;7.964;2023-11-21T09:43:39;30.67;;;14.48;;
27580;SDS011;63557;52.302;7.964;2023-11-21T09:48:40;29.63;;;14.95;;
27580;SDS011;63557;52.302;7.964;2023-11-21T09:53:41;24.65;;;12.95;;
27580;SDS011;63557;52.302;7.964;2023-11-21T09:58:44;23.48;;;12.15;;
27580;SDS011;63557;52.302;7.964;2023-11-21T10:03:44;23.45;;;12.88;;
27580;SDS011;63557;52.302;7.964;2023-11-21T10:08:45;24.83;;;13.05;;
27580;SDS011;63557;52.302;7.964;2023-11-21T10:13:45;14.57;;;9.43;;
27580;SDS011;63557;52.302;7.964;2023-11-21T10:18:46;13.70;;;9.15;;
27580;SDS011;63557;52.302;7.964;2023-11-21T10:23:48;22.05;;;12.05;;
27580;SDS011;63557;52.302;7.964;2023-11-21T10:28:58;21.10;;;13.15;;
27580;SDS011;63557;52.302;7.964;2023-11-21T10:39:34;17.63;;;11.43;;
27580;SDS011;63557;52.302;7.964;2023-11-21T10:44:35;16.60;;;10.77;;
27580;SDS011;63557;52.302;7.964;2023-11-21T10:49:35;18.03;;;11.67;;
27580;SDS011;63557;52.302;7.964;2023-11-21T10:54:37;23.77;;;14.40;;
27580;SDS011;63557;52.302;7.964;2023-11-21T10:59:37;22.87;;;15.03;;
27580;SDS011;63557;52.302;7.964;2023-11-21T11:04:38;22.70;;;14.07;;
27580;SDS011;63557;52.302;7.964;2023-11-21T11:09:39;23.77;;;15.43;;
27580;SDS011;63557;52.302;7.964;2023-11-21T11:14:42;28.05;;;16.05;;
27580;SDS011;63557;52.302;7.964;2023-11-21T11:19:45;26.50;;;16.63;;
27580;SDS011;63557;52.302;7.964;2023-11-21T11:34:59;26.73;;;17.80;;
27580;SDS011;63557;52.302;7.964;2023-11-21T11:40:01;33.42;;;18.90;;
27580;SDS011;63557;52.302;7.964;2023-11-21T11:45:17;28.90;;;17.60;;
27580;SDS011;63557;52.302;7.964;2023-11-21T11:50:17;26.92;;;16.75;;
27580;SDS011;63557;52.302;7.964;2023-11-21T11:55:18;28.07;;;17.90;;
27580;SDS011;63557;52.302;7.964;2023-11-21T12:00:20;31.08;;;17.83;;
27580;SDS011;63557;52.302;7.964;2023-11-21T12:05:21;28.35;;;19.42;;
27580;SDS011;63557;52.302;7.964;2023-11-21T12:10:23;27.10;;;17.77;;
27580;SDS011;63557;52.302;7.964;2023-11-21T12:15:25;31.13;;;18.67;;
27580;SDS011;63557;52.302;7.964;2023-11-21T12:20:26;26.60;;;17.20;;
27580;SDS011;63557;52.302;7.964;2023-11-21T12:25:30;27.15;;;15.50;;
27580;SDS011;63557;52.302;7.964;2023-11-21T12:30:33;22.52;;;14.70;;
27580;SDS011;63557;52.302;7.964;2023-11-21T12:35:35;20.50;;;11.63;;
27580;SDS011;63557;52.302;7.964;2023-11-21T12:40:36;20.15;;;12.73;;
27580;SDS011;63557;52.302;7.964;2023-11-21T12:45:36;19.50;;;13.20;;
27580;SDS011;63557;52.302;7.964;2023-11-21T12:50:38;21.48;;;12.50;;
27580;SDS011;63557;52.302;7.964;2023-11-21T12:55:38;15.43;;;11.57;;
27580;SDS011;63557;52.302;7.964;2023-11-21T13:00:40;22.38;;;13.07;;
27580;SDS011;63557;52.302;7.964;2023-11-21T13:05:42;17.55;;;11.05;;
27580;SDS011;63557;52.302;7.964;2023-11-21T13:10:45;19.75;;;11.98;;
27580;SDS011;63557;52.302;7.964;2023-11-21T13:15:50;19.23;;;12.55;;
27580;SDS011;63557;52.302;7.964;2023-11-21T13:20:51;17.65;;;10.85;;
27580;SDS011;63557;52.302;7.964;2023-11-21T13:25:53;15.13;;;11.82;;
27580;SDS011;63557;52.302;7.964;2023-11-21T13:30:53;18.90;;;11.15;;
27580;SDS011;63557;52.302;7.964;2023-11-21T13:35:54;18.30;;;11.50;;
27580;SDS011;63557;52.302;7.964;2023-11-21T13:40:56;16.80;;;11.27;;
27580;SDS011;63557;52.302;7.964;2023-11-21T13:45:58;18.80;;;11.55;;
27580;SDS011;63557;52.302;7.964;2023-11-21T13:51:03;19.27;;;11.17;;
27580;SDS011;63557;52.302;7.964;2023-11-21T13:56:13;20.35;;;11.45;;
27580;SDS011;63557;52.302;7.964;2023-11-21T14:01:18;19.95;;;12.60;;
27580;SDS011;63557;52.302;7.964;2023-11-21T14:06:46;19.60;;;13.50;;
27580;SDS011;63557;52.302;7.964;2023-11-21T14:16:52;19.17;;;13.15;;
27580;SDS011;63557;52.302;7.964;2023-11-21T14:21:53;22.17;;;13.60;;
27580;SDS011;63557;52.302;7.964;2023-11-21T14:26:53;19.50;;;12.50;;
27580;SDS011;63557;52.302;7.964;2023-11-21T14:31:53;19.30;;;12.80;;
27580;SDS011;63557;52.302;7.964;2023-11-21T14:36:56;21.92;;;13.38;;
27580;SDS011;63557;52.302;7.964;2023-11-21T14:41:57;21.93;;;13.27;;
27580;SDS011;63557;52.302;7.964;2023-11-21T14:46:58;20.60;;;14.05;;
27580;SDS011;63557;52.302;7.964;2023-11-21T14:51:59;18.55;;;13.18;;
27580;SDS011;63557;52.302;7.964;2023-11-21T14:57:03;26.15;;;13.32;;
27580;SDS011;63557;52.302;7.964;2023-11-21T15:02:05;18.25;;;12.90;;
27580;SDS011;63557;52.302;7.964;2023-11-21T15:07:15;19.83;;;12.05;;
27580;SDS011;63557;52.302;7.964;2023-11-21T15:12:15;18.63;;;11.80;;
27580;SDS011;63557;52.302;7.964;2023-11-21T15:17:16;18.27;;;12.18;;
27580;SDS011;63557;52.302;7.964;2023-11-21T15:22:25;21.65;;;13.27;;
27580;SDS011;63557;52.302;7.964;2023-11-21T15:27:27;20.65;;;13.13;;
27580;SDS011;63557;52.302;7.964;2023-11-21T15:32:28;18.77;;;12.97;;
27580;SDS011;63557;52.302;7.964;2023-11-21T15:37:28;21.03;;;13.43;;
27580;SDS011;63557;52.302;7.964;2023-11-21T15:42:29;23.40;;;15.60;;
27580;SDS011;63557;52.302;7.964;2023-11-21T15:47:29;24.43;;;16.60;;
27580;SDS011;63557;52.302;7.964;2023-11-21T15:52:30;23.35;;;14.90;;
27580;SDS011;63557;52.302;7.964;2023-11-21T15:57:30;28.05;;;17.38;;
27580;SDS011;63557;52.302;7.964;2023-11-21T16:02:31;28.02;;;17.83;;
27580;SDS011;63557;52.302;7.964;2023-11-21T16:07:31;26.37;;;18.27;;
27580;SDS011;63557;52.302;7.964;2023-11-21T16:12:32;31.73;;;20.15;;
27580;SDS011;63557;52.302;7.964;2023-11-21T16:17:32;26.10;;;17.00;;
27580;SDS011;63557;52.302;7.964;2023-11-21T16:22:34;29.35;;;19.63;;
27580;SDS011;63557;52.302;7.964;2023-11-21T16:27:34;26.40;;;17.25;;
27580;SDS011;63557;52.302;7.964;2023-11-21T16:32:34;27.23;;;17.80;;
27580;SDS011;63557;52.302;7.964;2023-11-21T16:37:36;28.80;;;17.65;;
27580;SDS011;63557;52.302;7.964;2023-11-21T16:42:36;25.20;;;16.83;;
27580;SDS011;63557;52.302;7.964;2023-11-21T16:47:38;26.50;;;18.17;;
27580;SDS011;63557;52.302;7.964;2023-11-21T16:52:42;24.80;;;17.00;;
27580;SDS011;63557;52.302;7.964;2023-11-21T16:57:43;29.77;;;17.65;;
27580;SDS011;63557;52.302;7.964;2023-11-21T17:02:44;26.17;;;17.45;;
27580;SDS011;63557;52.302;7.964;2023-11-21T17:07:45;23.48;;;16.33;;
27580;SDS011;63557;52.302;7.964;2023-11-21T17:12:46;20.88;;;16.15;;
27580;SDS011;63557;52.302;7.964;2023-11-21T17:17:46;27.93;;;17.33;;
27580;SDS011;63557;52.302;7.964;2023-11-21T17:22:46;26.37;;;15.90;;
27580;SDS011;63557;52.302;7.964;2023-11-21T17:27:47;24.85;;;17.05;;
27580;SDS011;63557;52.302;7.964;2023-11-21T17:32:48;25.50;;;16.77;;
27580;SDS011;63557;52.302;7.964;2023-11-21T17:37:49;26.52;;;18.23;;
27580;SDS011;63557;52.302;7.964;2023-11-21T17:42:49;30.23;;;19.37;;
27580;SDS011;63557;52.302;7.964;2023-11-21T17:47:50;29.05;;;17.38;;
27580;SDS011;63557;52.302;7.964;2023-11-21T17:52:50;30.23;;;17.50;;
27580;SDS011;63557;52.302;7.964;2023-11-21T17:57:51;25.45;;;17.80;;
27580;SDS011;63557;52.302;7.964;2023-11-21T18:02:51;23.80;;;16.03;;
27580;SDS011;63557;52.302;7.964;2023-11-21T18:07:52;23.58;;;17.48;;
27580;SDS011;63557;52.302;7.964;2023-11-21T18:12:52;22.27;;;15.52;;
27580;SDS011;63557;52.302;7.964;2023-11-21T18:17:54;20.58;;;15.05;;
27580;SDS011;63557;52.302;7.964;2023-11-21T18:22:54;24.10;;;14.77;;
27580;SDS011;63557;52.302;7.964;2023-11-21T18:27:54;22.00;;;14.50;;
27580;SDS011;63557;52.302;7.964;2023-11-21T18:32:55;20.40;;;13.40;;
27580;SDS011;63557;52.302;7.964;2023-11-21T18:37:55;20.13;;;11.60;;
27580;SDS011;63557;52.302;7.964;2023-11-21T18:42:55;18.83;;;12.80;;
27580;SDS011;63557;52.302;7.964;2023-11-21T18:47:56;20.83;;;13.90;;
27580;SDS011;63557;52.302;7.964;2023-11-21T18:52:56;17.43;;;12.10;;
27580;SDS011;63557;52.302;7.964;2023-11-21T18:57:56;20.20;;;12.90;;
27580;SDS011;63557;52.302;7.964;2023-11-21T19:02:57;17.63;;;12.02;;
27580;SDS011;63557;52.302;7.964;2023-11-21T19:07:58;22.83;;;11.18;;
27580;SDS011;63557;52.302;7.964;2023-11-21T19:12:58;17.80;;;11.90;;
27580;SDS011;63557;52.302;7.964;2023-11-21T19:17:59;19.33;;;14.35;;
27580;SDS011;63557;52.302;7.964;2023-11-21T19:22:59;16.93;;;11.27;;
27580;SDS011;63557;52.302;7.964;2023-11-21T19:28:00;21.80;;;14.73;;
27580;SDS011;63557;52.302;7.964;2023-11-21T19:33:00;30.33;;;17.90;;
27580;SDS011;63557;52.302;7.964;2023-11-21T19:38:05;21.77;;;13.73;;
27580;SDS011;63557;52.302;7.964;2023-11-21T19:43:05;18.80;;;13.17;;
27580;SDS011;63557;52.302;7.964;2023-11-21T19:48:07;22.05;;;14.57;;
27580;SDS011;63557;52.302;7.964;2023-11-21T19:53:08;48.72;;;32.75;;
27580;SDS011;63557;52.302;7.964;2023-11-21T19:58:09;87.53;;;49.38;;
27580;SDS011;63557;52.302;7.964;2023-11-21T20:03:11;41.17;;;23.20;;
27580;SDS011;63557;52.302;7.964;2023-11-21T20:08:11;22.08;;;12.70;;
27580;SDS011;63557;52.302;7.964;2023-11-21T20:13:14;24.30;;;14.57;;
27580;SDS011;63557;52.302;7.964;2023-11-21T20:18:15;23.52;;;13.27;;
27580;SDS011;63557;52.302;7.964;2023-11-21T20:23:16;21.98;;;14.68;;
27580;SDS011;63557;52.302;7.964;2023-11-21T20:28:18;28.02;;;15.38;;
27580;SDS011;63557;52.302;7.964;2023-11-21T20:33:18;24.40;;;15.60;;
27580;SDS011;63557;52.302;7.964;2023-11-21T20:38:19;21.90;;;14.75;;
27580;SDS011;63557;52.302;7.964;2023-11-21T20:43:20;27.60;;;17.13;;
27580;SDS011;63557;52.302;7.964;2023-11-21T20:48:22;23.60;;;16.13;;
27580;SDS011;63557;52.302;7.964;2023-11-21T20:53:24;25.45;;;15.40;;
27580;SDS011;63557;52.302;7.964;2023-11-21T20:58:24;29.13;;;16.43;;
27580;SDS011;63557;52.302;7.964;2023-11-21T21:03:25;30.30;;;17.58;;
27580;SDS011;63557;52.302;7.964;2023-11-21T21:08:25;28.87;;;18.50;;
27580;SDS011;63557;52.302;7.964;2023-11-21T21:13:26;30.40;;;18.25;;
27580;SDS011;63557;52.302;7.964;2023-11-21T21:18:27;27.23;;;17.15;;
27580;SDS011;63557;52.302;7.964;2023-11-21T21:23:27;26.50;;;17.53;;
27580;SDS011;63557;52.302;7.964;2023-11-21T21:28:28;25.50;;;16.55;;
27580;SDS011;63557;52.302;7.964;2023-11-21T21:33:28;25.33;;;15.73;;
27580;SDS011;63557;52.302;7.964;2023-11-21T21:38:29;25.73;;;15.13;;
27580;SDS011;63557;52.302;7.964;2023-11-21T21:43:30;33.33;;;17.35;;
27580;SDS011;63557;52.302;7.964;2023-11-21T21:48:31;27.08;;;16.15;;
27580;SDS011;63557;52.302;7.964;2023-11-21T21:53:31;26.40;;;14.57;;
27580;SDS011;63557;52.302;7.964;2023-11-21T21:58:31;25.17;;;15.17;;
27580;SDS011;63557;52.302;7.964;2023-11-21T22:03:32;30.87;;;15.57;;
27580;SDS011;63557;52.302;7.964;2023-11-21T22:08:32;20.85;;;13.43;;
27580;SDS011;63557;52.302;7.964;2023-11-21T22:13:33;25.25;;;13.23;;
27580;SDS011;63557;52.302;7.964;2023-11-21T22:18:34;21.05;;;12.93;;
27580;SDS011;63557;52.302;7.964;2023-11-21T22:23:34;19.55;;;12.18;;
27580;SDS011;63557;52.302;7.964;2023-11-21T22:28:37;17.13;;;11.57;;
27580;SDS011;63557;52.302;7.964;2023-11-21T22:33:38;18.02;;;11.60;;
27580;SDS011;63557;52.302;7.964;2023-11-21T22:38:39;20.07;;;11.70;;
27580;SDS011;63557;52.302;7.964;2023-11-21T22:43:40;18.70;;;11.13;;
27580;SDS011;63557;52.302;7.964;2023-11-21T22:48:40;19.90;;;11.65;;
27580;SDS011;63557;52.302;7.964;2023-11-21T22:53:41;19.33;;;12.20;;
27580;SDS011;63557;52.302;7.964;2023-11-21T22:58:41;19.50;;;10.87;;
27580;SDS011;63557;52.302;7.964;2023-11-21T23:03:41;18.10;;;11.10;;
27580;SDS011;63557;52.302;7.964;2023-11-21T23:08:44;22.08;;;11.48;;
27580;SDS011;63557;52.302;7.964;2023-11-21T23:13:45;17.88;;;11.15;;
27580;SDS011;63557;52.302;7.964;2023-11-21T23:18:45;20.13;;;11.32;;
27580;SDS011;63557;52.302;7.964;2023-11-21T23:23:49;19.48;;;10.73;;
27580;SDS011;63557;52.302;7.964;2023-11-21T23:28:50;16.38;;;11.43;;
27580;SDS011;63557;52.302;7.964;2023-11-21T23:33:51;17.40;;;10.57;;
27580;SDS011;63557;52.302;7.964;2023-11-21T23:38:51;19.63;;;11.90;;
27580;SDS011;63557;52.302;7.964;2023-11-21T23:43:51;21.00;;;11.27;;
27580;SDS011;63557;52.302;7.964;2023-11-21T23:48:52;19.30;;;12.07;;
27580;SDS011;63557;52.302;7.964;2023-11-21T23:53:53;22.67;;;11.02;;
27580;SDS011;63557;52.302;7.964;2023-11-21T23:58:54;21.85;;;13.30;;
